createdAt,value
2022-08-09T00:01:15.586Z,2.30
2022-08-09T00:04:06.221Z,2.40
2022-08-09T00:06:32.158Z,2.10
2022-08-09T00:09:01.271Z,2.42
2022-08-09T00:12:02.991Z,2.40
2022-08-09T00:14:21.971Z,2.07
2022-08-09T00:17:04.431Z,2.80
2022-08-09T00:19:32.103Z,2.50
2022-08-09T00:22:03.679Z,2.20
2022-08-09T00:24:32.594Z,2.38
2022-08-09T00:27:01.102Z,2.90
2022-08-09T00:29:39.390Z,2.65
2022-08-09T00:32:25.513Z,3.25
2022-08-09T00:34:56.712Z,3.20
2022-08-09T00:37:26.751Z,2.90
2022-08-09T00:40:12.362Z,3.10
2022-08-09T00:44:11.153Z,3.78
2022-08-09T00:45:34.720Z,4.25
2022-08-09T00:48:04.678Z,4.53
2022-08-09T00:50:33.213Z,4.22
2022-08-09T00:53:00.958Z,4.23
2022-08-09T00:56:05.073Z,5.10
2022-08-09T00:58:31.790Z,7.38
2022-08-09T01:00:59.931Z,6.25
2022-08-09T01:03:46.857Z,5.20
2022-08-09T01:06:25.599Z,3.53
2022-08-09T01:09:25.373Z,2.80
2022-08-09T01:12:28.531Z,2.20
2022-08-09T01:15:16.578Z,2.53
2022-08-09T01:18:03.105Z,2.20
2022-08-09T01:21:00.697Z,2.40
2022-08-09T01:24:01.868Z,2.50
2022-08-09T01:27:17.807Z,1.92
2022-08-09T01:29:56.744Z,2.13
2022-08-09T01:32:34.016Z,1.80
2022-08-09T01:35:38.274Z,2.20
2022-08-09T01:38:15.388Z,2.58
2022-08-09T01:41:03.033Z,2.70
2022-08-09T01:43:50.251Z,2.33
2022-08-09T01:46:28.602Z,2.47
2022-08-09T01:49:10.309Z,2.30
2022-08-09T01:51:42.845Z,2.17
2022-08-09T01:54:14.157Z,2.30
2022-08-09T01:56:51.384Z,2.08
2022-08-09T01:59:23.059Z,1.73
2022-08-09T02:01:58.165Z,2.13
2022-08-09T02:04:30.010Z,1.83
2022-08-09T02:08:34.647Z,2.50
2022-08-09T02:10:18.604Z,2.63
2022-08-09T02:13:01.485Z,2.70
2022-08-09T02:15:36.281Z,2.37
2022-08-09T02:18:21.921Z,1.83
2022-08-09T02:20:54.102Z,2.30
2022-08-09T02:23:44.630Z,2.10
2022-08-09T02:26:24.832Z,2.10
2022-08-09T02:29:00.047Z,1.80
2022-08-09T02:31:36.177Z,2.17
2022-08-09T02:34:13.140Z,2.15
2022-08-09T02:36:45.226Z,2.10
2022-08-09T02:39:39.889Z,2.25
2022-08-09T02:42:25.747Z,2.67
2022-08-09T02:44:57.340Z,2.72
2022-08-09T02:47:25.900Z,2.42
2022-08-09T02:50:10.161Z,2.55
2022-08-09T02:52:43.340Z,3.22
2022-08-09T02:55:20.575Z,3.53
2022-08-09T02:58:00.399Z,4.68
2022-08-09T03:00:57.998Z,5.38
2022-08-09T03:04:13.084Z,4.97
2022-08-09T03:06:17.732Z,3.78
2022-08-09T03:08:47.358Z,3.50
2022-08-09T03:11:29.726Z,5.03
2022-08-09T03:14:06.105Z,7.35
2022-08-09T03:16:37.398Z,8.52
2022-08-09T03:19:14.596Z,8.82
2022-08-09T03:21:58.839Z,6.43
2022-08-09T03:24:42.050Z,5.40
2022-08-09T03:27:13.914Z,5.03
2022-08-09T03:29:57.846Z,8.48
2022-08-09T03:32:31.935Z,12.27
2022-08-09T03:35:00.943Z,11.07
2022-08-09T03:37:55.497Z,9.30
2022-08-09T03:40:18.711Z,7.40
2022-08-09T03:42:46.960Z,6.28
2022-08-09T03:45:15.634Z,5.10
2022-08-09T03:47:46.634Z,4.40
2022-08-09T03:50:18.754Z,5.15
2022-08-09T03:53:03.072Z,5.22
2022-08-09T03:55:36.321Z,5.25
2022-08-09T03:58:16.348Z,5.65
2022-08-09T04:00:45.995Z,5.40
2022-08-09T04:03:24.905Z,6.00
2022-08-09T04:06:06.121Z,6.20
2022-08-09T04:08:34.874Z,6.15
2022-08-09T04:11:03.149Z,5.72
2022-08-09T04:14:37.280Z,6.10
2022-08-09T04:16:21.702Z,7.80
2022-08-09T04:18:51.318Z,9.00
2022-08-09T04:21:19.459Z,9.70
2022-08-09T04:23:54.352Z,9.85
2022-08-09T04:26:35.315Z,11.47
2022-08-09T04:29:10.906Z,12.80
2022-08-09T04:31:46.815Z,13.15
2022-08-09T04:34:19.214Z,13.73
2022-08-09T04:37:00.209Z,12.45
2022-08-09T04:39:31.317Z,10.63
2022-08-09T04:41:59.750Z,7.47
2022-08-09T04:44:27.815Z,6.40
2022-08-09T04:46:58.257Z,5.10
2022-08-09T04:49:52.709Z,5.95
2022-08-09T04:52:28.723Z,4.87
2022-08-09T04:55:00.339Z,5.35
2022-08-09T04:57:59.463Z,4.60
2022-08-09T05:00:16.739Z,4.13
2022-08-09T05:02:52.054Z,5.22
2022-08-09T05:05:32.206Z,4.70
2022-08-09T05:08:09.344Z,4.43
2022-08-09T05:10:37.031Z,4.35
2022-08-09T05:13:04.758Z,3.45
2022-08-09T05:15:39.201Z,3.70
2022-08-09T05:18:50.310Z,3.87
2022-08-09T05:21:09.710Z,3.67
2022-08-09T05:23:55.350Z,3.90
2022-08-09T05:26:45.484Z,3.42
2022-08-09T05:29:22.194Z,3.08
2022-08-09T05:31:56.788Z,2.67
2022-08-09T05:34:32.524Z,2.95
2022-08-09T05:37:06.774Z,3.42
2022-08-09T05:39:43.367Z,3.45
2022-08-09T05:42:20.508Z,3.33
2022-08-09T05:44:54.302Z,3.20
2022-08-09T05:47:24.729Z,3.10
2022-08-09T05:50:30.684Z,3.38
2022-08-09T05:52:42.445Z,3.13
2022-08-09T05:55:20.661Z,2.80
2022-08-09T05:57:56.962Z,2.80
2022-08-09T06:00:30.362Z,3.17
2022-08-09T06:02:59.805Z,4.60
2022-08-09T06:05:57.122Z,4.28
2022-08-09T06:08:18.933Z,3.17
2022-08-09T06:10:47.551Z,3.63
2022-08-09T06:13:20.327Z,3.03
2022-08-09T06:15:51.639Z,3.13
2022-08-09T06:18:25.406Z,4.20
2022-08-09T06:20:57.667Z,4.43
2022-08-09T06:23:57.809Z,5.23
2022-08-09T06:26:20.958Z,4.43
2022-08-09T06:29:00.770Z,4.13
2022-08-09T06:31:39.877Z,4.30
2022-08-09T06:34:19.325Z,7.47
2022-08-09T06:36:46.822Z,3.93
2022-08-09T06:39:16.680Z,7.65
2022-08-09T06:42:09.134Z,6.30
2022-08-09T06:44:32.279Z,4.00
2022-08-09T06:47:00.933Z,5.40
2022-08-09T06:50:11.418Z,4.60
2022-08-09T06:52:23.695Z,4.40
2022-08-09T06:54:54.517Z,4.15
2022-08-09T06:57:42.471Z,4.63
2022-08-09T07:00:55.527Z,3.97
2022-08-09T07:03:05.343Z,3.33
2022-08-09T07:05:58.165Z,3.83
2022-08-09T07:08:21.370Z,3.42
2022-08-09T07:10:52.841Z,3.80
2022-08-09T07:13:28.056Z,3.97
2022-08-09T07:16:42.870Z,3.73
2022-08-09T07:18:47.382Z,3.60
2022-08-09T07:21:15.124Z,3.80
2022-08-09T07:23:46.690Z,4.50
2022-08-09T07:26:26.001Z,4.80
2022-08-09T07:29:09.310Z,5.00
2022-08-09T07:31:45.300Z,4.70
2022-08-09T07:34:20.524Z,5.35
2022-08-09T07:36:52.878Z,4.50
2022-08-09T07:39:40.326Z,3.63
2022-08-09T07:42:09.645Z,3.63
2022-08-09T07:44:51.940Z,4.38
2022-08-09T07:47:25.108Z,3.97
2022-08-09T07:50:07.959Z,4.10
2022-08-09T07:52:38.559Z,4.10
2022-08-09T07:55:08.814Z,3.60
2022-08-09T07:57:47.220Z,4.00
2022-08-09T08:00:36.548Z,3.60
2022-08-09T08:03:05.296Z,3.58
2022-08-09T08:05:54.123Z,4.07
2022-08-09T08:08:59.781Z,3.60
2022-08-09T08:12:10.751Z,3.28
2022-08-09T08:14:00.415Z,4.03
2022-08-09T08:16:31.610Z,3.88
2022-08-09T08:19:02.852Z,3.85
2022-08-09T08:21:32.254Z,3.20
2022-08-09T08:24:11.560Z,3.67
2022-08-09T08:26:55.811Z,3.58
2022-08-09T08:29:27.920Z,3.70
2022-08-09T08:32:05.777Z,3.83
2022-08-09T08:34:36.640Z,3.80
2022-08-09T08:37:05.386Z,3.78
2022-08-09T08:39:40.011Z,4.07
2022-08-09T08:42:12.786Z,4.10
2022-08-09T08:44:42.934Z,3.80
2022-08-09T08:47:13.236Z,3.50
2022-08-09T08:49:47.410Z,3.58
2022-08-09T08:55:07.431Z,3.58
2022-08-09T08:57:36.083Z,3.50
2022-08-09T09:00:20.326Z,3.37
2022-08-09T09:03:04.511Z,3.78
2022-08-09T09:05:58.305Z,4.00
2022-08-09T09:08:29.857Z,3.38
2022-08-09T09:11:05.405Z,3.75
2022-08-09T09:13:47.491Z,3.50
2022-08-09T09:16:34.356Z,3.63
2022-08-09T09:22:26.807Z,3.30
2022-08-09T09:26:02.013Z,3.40
2022-08-09T09:28:03.727Z,3.27
2022-08-09T09:30:41.262Z,3.25
2022-08-09T09:33:16.194Z,3.60
2022-08-09T09:36:02.679Z,3.50
2022-08-09T09:38:50.625Z,3.83
2022-08-09T09:41:27.844Z,3.17
2022-08-09T09:44:12.821Z,3.17
2022-08-09T09:46:45.893Z,3.35
2022-08-09T09:49:32.037Z,3.25
2022-08-09T09:52:33.645Z,4.07
2022-08-09T09:55:24.468Z,3.23
2022-08-09T09:58:00.819Z,3.20
2022-08-09T10:00:33.784Z,3.67
2022-08-09T10:03:11.868Z,3.22
2022-08-09T10:06:05.179Z,3.33
2022-08-09T10:08:32.924Z,3.53
2022-08-09T10:12:01.318Z,3.05
2022-08-09T10:14:33.829Z,3.05
2022-08-09T10:17:38.673Z,2.92
2022-08-09T10:20:00.872Z,3.08
2022-08-09T10:22:39.158Z,2.83
2022-08-09T10:25:11.892Z,3.33
2022-08-09T10:27:57.573Z,2.92
2022-08-09T10:34:07.777Z,2.65
2022-08-09T10:36:11.563Z,3.10
2022-08-09T10:38:56.201Z,3.13
2022-08-09T10:41:25.084Z,3.17
2022-08-09T10:43:59.273Z,2.72
2022-08-09T10:46:54.676Z,2.97
2022-08-09T10:49:41.908Z,3.20
2022-08-09T10:52:38.307Z,3.25
2022-08-09T10:55:55.765Z,3.47
2022-08-09T10:58:34.630Z,3.33
2022-08-09T11:03:02.502Z,3.45
2022-08-09T11:04:30.892Z,3.43
2022-08-09T11:07:01.169Z,4.00
2022-08-09T11:09:47.818Z,3.88
2022-08-09T11:12:18.941Z,3.40
2022-08-09T11:15:01.788Z,3.63
2022-08-09T11:17:31.151Z,3.80
2022-08-09T11:20:11.532Z,2.80
2022-08-09T11:22:55.309Z,3.53
2022-08-09T11:25:47.666Z,3.72
2022-08-09T11:28:56.562Z,3.20
2022-08-09T11:31:49.063Z,3.50
2022-08-09T11:34:43.038Z,3.33
2022-08-09T11:37:17.894Z,3.45
2022-08-09T11:40:10.668Z,3.00
2022-08-09T11:42:49.969Z,3.13
2022-08-09T11:45:42.010Z,3.07
2022-08-09T11:48:26.621Z,3.10
2022-08-09T11:52:59.060Z,3.55
2022-08-09T11:53:58.666Z,3.10
2022-08-09T11:56:39.643Z,3.28
2022-08-09T11:59:12.149Z,2.90
2022-08-09T12:02:16.953Z,3.63
2022-08-09T12:04:37.328Z,3.15
2022-08-09T12:07:09.412Z,3.22
2022-08-09T12:09:37.144Z,3.22
2022-08-09T12:12:12.342Z,3.27
2022-08-09T12:15:07.374Z,3.00
2022-08-09T12:17:44.526Z,3.63
2022-08-09T12:20:24.775Z,2.72
2022-08-09T12:22:59.203Z,2.90
2022-08-09T12:25:36.335Z,3.03
2022-08-09T12:29:15.411Z,3.78
2022-08-09T12:31:58.853Z,3.65
2022-08-09T12:34:05.520Z,2.80
2022-08-09T12:36:33.945Z,2.83
2022-08-09T12:39:02.420Z,3.00
2022-08-09T12:41:39.469Z,3.20
2022-08-09T12:44:10.105Z,3.40
2022-08-09T12:46:49.185Z,3.05
2022-08-09T12:49:20.865Z,3.40
2022-08-09T12:52:02.214Z,2.87
2022-08-09T12:55:00.758Z,3.40
2022-08-09T12:57:46.196Z,3.92
2022-08-09T13:00:25.884Z,3.58
2022-08-09T13:02:59.855Z,3.60
2022-08-09T13:05:51.531Z,3.03
2022-08-09T13:08:39.593Z,3.17
2022-08-09T13:11:23.348Z,3.78
2022-08-09T13:14:43.664Z,3.20
2022-08-09T13:16:56.452Z,3.53
2022-08-09T13:20:07.248Z,3.20
2022-08-09T13:22:37.279Z,3.40
2022-08-09T13:25:15.321Z,3.47
2022-08-09T13:27:48.380Z,3.25
2022-08-09T13:31:10.998Z,3.53
2022-08-09T13:33:17.284Z,3.03
2022-08-09T13:36:38.656Z,3.30
2022-08-09T13:38:56.128Z,3.40
2022-08-09T13:41:59.138Z,2.55
2022-08-09T13:44:16.906Z,3.05
2022-08-09T13:47:28.904Z,2.83
2022-08-09T13:49:39.740Z,3.20
2022-08-09T13:52:29.970Z,3.10
2022-08-09T13:55:00.935Z,2.70
2022-08-09T13:57:39.670Z,3.53
2022-08-09T14:00:15.509Z,2.97
2022-08-09T14:03:02.958Z,2.97
2022-08-09T14:06:00.291Z,2.85
2022-08-09T14:08:28.094Z,3.15
2022-08-09T14:10:56.621Z,3.00
2022-08-09T14:14:17.362Z,2.73
2022-08-09T14:16:16.389Z,3.70
2022-08-09T14:18:49.437Z,3.22
2022-08-09T14:21:23.343Z,3.00
2022-08-09T14:23:57.094Z,3.10
2022-08-09T14:26:30.489Z,3.10
2022-08-09T14:29:03.614Z,2.90
2022-08-09T14:31:50.159Z,3.28
2022-08-09T14:34:30.949Z,3.42
2022-08-09T14:37:06.508Z,5.03
2022-08-09T14:39:46.694Z,4.33
2022-08-09T14:42:32.193Z,4.35
2022-08-09T14:46:39.361Z,4.25
2022-08-09T14:47:57.187Z,4.30
2022-08-09T14:50:28.382Z,4.28
2022-08-09T14:52:56.026Z,4.93
2022-08-09T14:55:23.539Z,4.50
2022-08-09T14:57:51.105Z,4.82
2022-08-09T15:00:18.885Z,4.80
2022-08-09T15:02:47.155Z,6.00
2022-08-09T15:05:16.964Z,5.27
2022-08-09T15:07:45.607Z,5.00
2022-08-09T15:10:24.723Z,4.60
2022-08-09T15:12:59.901Z,3.90
2022-08-09T15:15:29.584Z,4.55
2022-08-09T15:18:02.155Z,4.27
2022-08-09T15:22:00.681Z,4.80
2022-08-09T15:24:09.119Z,5.15
2022-08-09T15:26:05.554Z,6.03
2022-08-09T15:28:54.697Z,6.18
2022-08-09T15:31:28.644Z,6.40
2022-08-09T15:34:18.191Z,6.20
2022-08-09T15:36:58.310Z,6.53
2022-08-09T15:39:43.644Z,6.78
2022-08-09T15:42:14.873Z,10.07
2022-08-09T15:44:42.701Z,9.80
2022-08-09T15:47:14.587Z,11.35
2022-08-09T15:50:04.057Z,9.20
2022-08-09T15:52:37.961Z,8.60
2022-08-09T15:55:09.231Z,8.23
2022-08-09T15:57:44.189Z,7.63
2022-08-09T16:00:24.717Z,6.97
2022-08-09T16:02:56.378Z,7.00
2022-08-09T16:05:47.422Z,6.07
2022-08-09T16:08:30.495Z,5.75
2022-08-09T16:11:03.648Z,5.50
2022-08-09T16:14:04.857Z,5.28
2022-08-09T16:16:26.060Z,4.75
2022-08-09T16:18:56.058Z,6.32
2022-08-09T16:21:25.606Z,4.50
2022-08-09T16:23:58.464Z,4.23
2022-08-09T16:26:34.847Z,3.90
2022-08-09T16:29:11.619Z,3.42
2022-08-09T16:32:20.316Z,3.38
2022-08-09T16:34:55.281Z,3.70
2022-08-09T16:37:55.956Z,3.57
2022-08-09T16:40:14.077Z,3.60
2022-08-09T16:42:49.155Z,4.10
2022-08-09T16:45:21.760Z,4.05
2022-08-09T16:48:39.565Z,4.30
2022-08-09T16:50:39.086Z,4.00
2022-08-09T16:53:08.954Z,4.03
2022-08-09T16:56:00.060Z,4.10
2022-08-09T16:58:24.798Z,4.10
2022-08-09T17:00:53.713Z,4.50
2022-08-09T17:03:23.020Z,4.60
2022-08-09T17:06:08.180Z,4.53
2022-08-09T17:09:02.995Z,4.00
2022-08-09T17:11:40.956Z,3.80
2022-08-09T17:14:26.312Z,3.88
2022-08-09T17:17:02.284Z,3.60
2022-08-09T17:19:47.348Z,3.30
2022-08-09T17:22:23.701Z,4.05
2022-08-09T17:24:55.063Z,3.35
2022-08-09T17:27:23.939Z,3.78
2022-08-09T17:29:52.014Z,3.20
2022-08-09T17:32:34.867Z,3.45
2022-08-09T17:35:12.404Z,4.05
2022-08-09T17:38:02.738Z,3.65
2022-08-09T17:40:35.387Z,3.38
2022-08-09T17:43:32.716Z,3.80
2022-08-09T17:46:04.356Z,3.40
2022-08-09T17:48:40.152Z,3.55
2022-08-09T17:51:18.233Z,3.53
2022-08-09T17:53:53.646Z,3.83
2022-08-09T17:56:27.633Z,3.57
2022-08-09T17:59:03.307Z,3.95
2022-08-09T18:01:57.845Z,4.20
2022-08-09T18:04:24.370Z,5.05
2022-08-09T18:06:54.909Z,4.93
2022-08-09T18:09:41.145Z,4.40
2022-08-09T18:12:15.332Z,4.68
2022-08-09T18:14:49.666Z,4.32
2022-08-09T18:17:27.362Z,4.82
2022-08-09T18:20:53.814Z,3.88
2022-08-09T18:22:57.444Z,5.63
2022-08-09T18:25:51.040Z,5.55
2022-08-09T18:30:41.448Z,4.38
2022-08-09T18:31:10.973Z,4.32
2022-08-09T18:33:40.238Z,3.95
2022-08-09T18:36:26.030Z,3.70
2022-08-09T18:39:02.817Z,3.70
2022-08-09T18:41:34.841Z,4.10
2022-08-09T18:44:10.639Z,4.78
2022-08-09T18:46:46.515Z,5.82
2022-08-09T18:49:19.400Z,11.77
2022-08-09T18:51:55.305Z,10.80
2022-08-09T18:54:28.466Z,11.15
2022-08-09T18:57:06.227Z,10.82
2022-08-09T18:59:48.533Z,8.55
2022-08-09T19:02:17.851Z,8.40
2022-08-09T19:04:47.565Z,7.85
2022-08-09T19:07:28.500Z,6.75
2022-08-09T19:10:17.176Z,5.95
2022-08-09T19:13:04.619Z,6.40
2022-08-09T19:15:35.183Z,6.57
2022-08-09T19:18:05.531Z,7.43
2022-08-09T19:20:34.444Z,8.20
2022-08-09T19:23:16.701Z,8.35
2022-08-09T19:26:01.965Z,7.78
2022-08-09T19:28:35.147Z,7.77
2022-08-09T19:31:07.801Z,7.38
2022-08-09T19:33:35.924Z,6.53
2022-08-09T19:36:04.150Z,6.10
2022-08-09T19:38:34.778Z,6.93
2022-08-09T19:41:07.364Z,6.13
2022-08-09T19:44:01.242Z,6.40
2022-08-09T19:46:34.861Z,6.78
2022-08-09T19:50:08.986Z,7.00
2022-08-09T19:51:55.039Z,6.63
2022-08-09T19:54:25.260Z,8.50
2022-08-09T19:56:54.176Z,8.10
2022-08-09T19:59:58.546Z,10.02
2022-08-09T20:02:15.789Z,12.07
2022-08-09T20:05:00.572Z,15.35
2022-08-09T20:07:33.796Z,17.10
2022-08-09T20:10:22.116Z,17.65
2022-08-09T20:12:55.526Z,16.02
2022-08-09T20:16:34.089Z,16.75
2022-08-09T20:18:12.927Z,15.68
2022-08-09T20:20:41.932Z,16.40
2022-08-09T20:23:09.494Z,13.40
2022-08-09T20:25:49.518Z,12.48
2022-08-09T20:28:27.436Z,10.38
2022-08-09T20:30:55.757Z,8.35
2022-08-09T20:33:24.545Z,7.27
2022-08-09T20:35:52.568Z,6.80
2022-08-09T20:38:30.896Z,6.20
2022-08-09T20:41:07.995Z,5.40
2022-08-09T20:43:35.635Z,5.28
2022-08-09T20:46:33.418Z,4.93
2022-08-09T20:48:50.827Z,5.30
2022-08-09T20:51:25.098Z,4.72
2022-08-09T20:53:52.776Z,3.95
2022-08-09T20:56:26.200Z,3.85
2022-08-09T20:58:58.259Z,4.10
2022-08-09T21:01:35.508Z,3.90
2022-08-09T21:05:55.075Z,3.60
2022-08-09T21:07:11.942Z,3.10
2022-08-09T21:09:56.583Z,3.25
2022-08-09T21:15:15.510Z,3.10
2022-08-09T21:18:21.017Z,3.47
2022-08-09T21:20:33.320Z,3.90
2022-08-09T21:23:03.670Z,2.80
2022-08-09T21:26:07.370Z,3.10
2022-08-09T21:28:36.282Z,3.10
2022-08-09T21:31:13.575Z,2.78
2022-08-09T21:33:52.362Z,3.22
2022-08-09T21:36:28.614Z,3.65
2022-08-09T21:38:59.622Z,3.60
2022-08-09T21:42:04.390Z,3.83
2022-08-09T21:44:32.959Z,4.22
2022-08-09T21:47:07.589Z,4.45
2022-08-09T21:49:40.006Z,4.38
2022-08-09T21:52:17.019Z,4.33
2022-08-09T21:55:03.394Z,4.80
2022-08-09T21:57:39.438Z,5.10
2022-08-09T22:00:34.043Z,4.88
2022-08-09T22:03:04.720Z,6.38
2022-08-09T22:05:42.487Z,7.50
2022-08-09T22:08:14.908Z,7.80
2022-08-09T22:11:00.621Z,7.00
2022-08-09T22:13:36.664Z,6.03
2022-08-09T22:16:09.230Z,5.93
2022-08-09T22:18:38.658Z,5.67
2022-08-09T22:21:21.917Z,5.88
2022-08-09T22:24:01.205Z,6.50
2022-08-09T22:26:35.340Z,5.78
2022-08-09T22:29:09.346Z,6.10
2022-08-09T22:31:50.433Z,6.90
2022-08-09T22:34:28.155Z,8.60
2022-08-09T22:36:58.115Z,7.35
2022-08-09T22:39:57.318Z,9.18
2022-08-09T22:42:22.285Z,9.38
2022-08-09T22:48:04.492Z,12.30
2022-08-09T22:48:11.599Z,10.60
2022-08-09T22:50:33.034Z,12.57
2022-08-09T22:53:03.565Z,15.27
2022-08-09T22:56:29.125Z,17.25
2022-08-09T22:58:32.689Z,16.20
2022-08-09T23:01:06.145Z,14.35
2022-08-09T23:04:04.301Z,13.25
2022-08-09T23:06:35.603Z,12.38
2022-08-09T23:09:07.232Z,12.25
2022-08-09T23:11:35.167Z,12.00
2022-08-09T23:14:03.860Z,10.13
2022-08-09T23:16:31.988Z,10.40
2022-08-09T23:19:00.160Z,8.57
2022-08-09T23:21:33.434Z,8.07
2022-08-09T23:24:06.030Z,8.00
2022-08-09T23:26:38.187Z,6.90
2022-08-09T23:29:11.912Z,5.45
2022-08-09T23:31:40.362Z,5.22
2022-08-09T23:34:08.108Z,5.10
2022-08-09T23:36:39.010Z,5.00
2022-08-09T23:39:08.307Z,3.95
2022-08-09T23:41:35.965Z,4.40
2022-08-09T23:44:04.146Z,4.40
2022-08-09T23:46:32.454Z,4.07
2022-08-09T23:49:00.850Z,4.03
2022-08-09T23:51:29.056Z,4.50
2022-08-09T23:54:02.518Z,4.80
2022-08-09T23:56:52.063Z,4.07
2022-08-09T23:59:21.283Z,3.95
